Terminal Aerodrome Forecast
Issued by NWS

Home | Current Version | Previous Version | Text Only | Print | Product List | Glossary On
Versions: 1 2 3 4 5 6 7 8 9 10 11 12 13 14 15 16 17 18 19 20 21 22 23 24 25 26
730
FTUS43 KLSX 221733
TAFUIN
TAF
KUIN 221733Z 2218/2318 20012KT P6SM BKN008
     FM222000 20012G19KT P6SM SCT015
     FM230000 21007KT P6SM FEW250
     FM231200 04005KT 2SM BR SCT070
     FM231500 06008KT P6SM BKN200=

USA.gov is the U.S. government's official web portal to all federal, state and local government web resources and services.